createdAt,value
2018-07-31T00:00:51.326Z,0.00
2018-07-31T00:01:51.280Z,0.00
2018-07-31T00:02:51.213Z,0.00
2018-07-31T00:03:51.119Z,0.00
2018-07-31T00:04:51.059Z,0.00
2018-07-31T00:05:51.022Z,0.00
2018-07-31T00:06:50.917Z,0.00
2018-07-31T00:07:50.845Z,0.00
2018-07-31T00:08:50.771Z,0.00
2018-07-31T00:09:50.709Z,0.00
2018-07-31T00:10:50.632Z,0.00
2018-07-31T00:11:50.574Z,0.00
2018-07-31T00:12:50.589Z,0.00
2018-07-31T00:13:50.506Z,0.00
2018-07-31T00:14:50.415Z,0.00
2018-07-31T00:15:50.329Z,0.00
2018-07-31T00:16:50.303Z,0.00
2018-07-31T00:17:50.219Z,0.00
2018-07-31T00:18:50.130Z,0.00
2018-07-31T00:19:50.072Z,0.00
2018-07-31T00:20:49.983Z,0.00
2018-07-31T00:21:49.919Z,0.00
2018-07-31T00:22:49.855Z,0.00
2018-07-31T00:23:49.808Z,0.00
2018-07-31T00:24:49.717Z,0.00
2018-07-31T00:25:49.650Z,0.00
2018-07-31T00:26:49.588Z,0.00
2018-07-31T00:27:49.513Z,0.00
2018-07-31T00:28:49.438Z,0.00
2018-07-31T00:29:49.382Z,0.00
2018-07-31T00:30:49.301Z,0.00
2018-07-31T00:31:49.242Z,0.00
2018-07-31T00:32:49.154Z,0.00
2018-07-31T00:33:49.091Z,0.00
2018-07-31T00:34:49.018Z,0.00
2018-07-31T00:35:48.973Z,0.00
2018-07-31T00:36:48.885Z,0.00
2018-07-31T00:37:48.783Z,0.00
2018-07-31T00:38:48.733Z,0.00
2018-07-31T00:39:48.671Z,0.00
2018-07-31T00:40:48.600Z,0.00
2018-07-31T00:41:48.475Z,0.00
2018-07-31T00:42:48.409Z,0.00
2018-07-31T00:43:48.332Z,0.00
2018-07-31T00:44:48.259Z,0.00
2018-07-31T00:45:48.198Z,0.00
2018-07-31T00:46:48.134Z,0.00
2018-07-31T00:47:48.051Z,0.00
2018-07-31T00:48:47.980Z,0.00
2018-07-31T00:49:47.913Z,0.00
2018-07-31T00:50:47.843Z,0.00
2018-07-31T00:51:47.774Z,0.00
2018-07-31T00:52:47.704Z,0.00
2018-07-31T00:53:47.704Z,0.00
2018-07-31T00:54:47.621Z,0.00
2018-07-31T00:55:48.303Z,0.00
2018-07-31T00:56:47.481Z,0.00
2018-07-31T00:57:48.160Z,0.00
2018-07-31T00:58:47.346Z,0.00
2018-07-31T00:59:47.281Z,0.00
2018-07-31T01:00:47.140Z,0.00
2018-07-31T01:01:47.130Z,0.00
2018-07-31T01:02:47.059Z,0.00
2018-07-31T01:03:46.990Z,0.00
2018-07-31T01:04:46.932Z,0.00
2018-07-31T01:05:47.858Z,0.00
2018-07-31T01:06:46.794Z,0.00
2018-07-31T01:07:46.709Z,0.00
2018-07-31T01:08:46.663Z,0.00
2018-07-31T01:09:46.609Z,0.00
2018-07-31T01:10:46.505Z,0.00
2018-07-31T01:11:46.436Z,0.00
2018-07-31T01:12:46.312Z,0.00
2018-07-31T01:13:46.320Z,0.00
2018-07-31T01:14:46.219Z,0.00
2018-07-31T01:15:46.199Z,0.00
2018-07-31T01:16:46.096Z,0.00
2018-07-31T01:17:46.042Z,0.00
2018-07-31T01:18:45.932Z,0.00
2018-07-31T01:19:45.879Z,0.00
2018-07-31T01:20:45.793Z,0.00
2018-07-31T01:21:45.710Z,0.00
2018-07-31T01:22:46.666Z,0.00
2018-07-31T01:23:45.584Z,0.00
2018-07-31T01:24:46.277Z,0.00
2018-07-31T01:25:45.385Z,0.00
2018-07-31T01:26:45.316Z,0.00
2018-07-31T01:27:45.241Z,0.00
2018-07-31T01:28:45.169Z,0.00
2018-07-31T01:29:45.131Z,0.00
2018-07-31T01:30:45.039Z,0.00
2018-07-31T01:31:44.966Z,0.00
2018-07-31T01:32:44.894Z,0.00
2018-07-31T01:33:44.820Z,0.00
2018-07-31T01:34:44.748Z,0.00
2018-07-31T01:35:44.681Z,0.00
2018-07-31T01:36:44.608Z,0.00
2018-07-31T01:37:44.541Z,0.00
2018-07-31T01:38:44.473Z,0.00
2018-07-31T01:39:47.419Z,0.00
2018-07-31T01:40:44.327Z,0.00
2018-07-31T01:41:44.258Z,0.00
2018-07-31T01:42:44.184Z,0.00
2018-07-31T01:43:44.115Z,0.00
2018-07-31T01:44:44.046Z,0.00
2018-07-31T01:45:44.005Z,0.00
2018-07-31T01:46:43.900Z,0.00
2018-07-31T01:47:43.835Z,0.00
2018-07-31T01:48:43.764Z,0.00
2018-07-31T01:49:43.694Z,0.00
2018-07-31T01:50:43.628Z,0.00
2018-07-31T01:51:43.552Z,0.00
2018-07-31T01:52:43.477Z,0.00
2018-07-31T01:53:43.415Z,0.00
2018-07-31T01:54:43.339Z,0.00
2018-07-31T01:55:43.276Z,0.00
2018-07-31T01:56:43.195Z,0.00
2018-07-31T01:57:43.127Z,0.00
2018-07-31T01:58:43.062Z,0.00
2018-07-31T01:59:43.021Z,0.00
2018-07-31T02:00:42.916Z,0.00
2018-07-31T02:01:42.852Z,0.00
2018-07-31T02:02:42.776Z,0.00
2018-07-31T02:03:42.707Z,0.00
2018-07-31T02:04:42.635Z,0.00
2018-07-31T02:05:42.565Z,0.00
2018-07-31T02:06:42.551Z,0.00
2018-07-31T02:07:42.508Z,0.00
2018-07-31T02:08:42.432Z,0.00
2018-07-31T02:09:42.301Z,0.00
2018-07-31T02:10:42.305Z,0.00
2018-07-31T02:11:42.242Z,0.00
2018-07-31T02:12:42.135Z,0.00
2018-07-31T02:13:43.847Z,0.00
2018-07-31T02:14:41.983Z,0.00
2018-07-31T02:15:41.936Z,0.00
2018-07-31T02:16:41.866Z,0.00
2018-07-31T02:17:41.781Z,0.00
2018-07-31T02:18:41.744Z,0.00
2018-07-31T02:19:41.651Z,0.00
2018-07-31T02:20:41.592Z,0.00
2018-07-31T02:21:41.505Z,0.00
2018-07-31T02:22:41.370Z,0.00
2018-07-31T02:23:41.295Z,0.00
2018-07-31T02:24:41.219Z,0.00
2018-07-31T02:25:41.154Z,0.00
2018-07-31T02:26:41.128Z,0.00
2018-07-31T02:27:41.013Z,0.00
2018-07-31T02:28:41.074Z,0.00
2018-07-31T02:29:40.875Z,0.00
2018-07-31T02:30:40.798Z,0.00
2018-07-31T02:31:40.723Z,0.00
2018-07-31T02:32:40.662Z,0.00
2018-07-31T02:33:40.591Z,0.00
2018-07-31T02:34:40.512Z,0.00
2018-07-31T02:35:40.453Z,0.00
2018-07-31T02:36:40.374Z,0.00
2018-07-31T02:37:40.305Z,0.00
2018-07-31T02:38:40.246Z,0.00
2018-07-31T02:39:40.163Z,0.00
2018-07-31T02:40:40.085Z,0.00
2018-07-31T02:41:40.017Z,0.00
2018-07-31T02:42:39.948Z,0.00
2018-07-31T02:43:39.886Z,0.00
2018-07-31T02:44:39.803Z,0.00
2018-07-31T02:45:39.738Z,0.00
2018-07-31T02:46:39.661Z,0.00
2018-07-31T02:47:39.592Z,0.00
2018-07-31T02:48:39.516Z,0.00
2018-07-31T02:49:39.450Z,0.00
2018-07-31T02:50:39.377Z,0.00
2018-07-31T02:51:39.315Z,0.00
2018-07-31T02:52:39.232Z,0.00
2018-07-31T02:53:39.167Z,0.00
2018-07-31T02:54:39.090Z,0.00
2018-07-31T02:55:39.022Z,0.00
2018-07-31T02:56:38.950Z,0.00
2018-07-31T02:57:38.884Z,0.00
2018-07-31T02:58:38.815Z,0.00
2018-07-31T02:59:38.745Z,0.00
2018-07-31T03:00:38.663Z,0.00
2018-07-31T03:01:39.205Z,0.00
2018-07-31T03:02:38.597Z,0.00
2018-07-31T03:03:38.505Z,0.00
2018-07-31T03:04:38.395Z,0.00
2018-07-31T03:05:38.325Z,0.00
2018-07-31T03:06:38.235Z,0.00
2018-07-31T03:07:38.169Z,0.00
2018-07-31T03:08:38.097Z,0.00
2018-07-31T03:09:38.030Z,0.00
2018-07-31T03:10:37.952Z,0.00
2018-07-31T03:11:37.883Z,0.00
2018-07-31T03:12:37.828Z,0.00
2018-07-31T03:13:37.750Z,0.00
2018-07-31T03:14:37.667Z,0.00
2018-07-31T03:15:37.596Z,0.00
2018-07-31T03:16:37.523Z,0.00
2018-07-31T03:17:37.462Z,0.00
2018-07-31T03:18:37.387Z,0.00
2018-07-31T03:19:37.310Z,0.00
2018-07-31T03:20:37.237Z,0.00
2018-07-31T03:21:37.168Z,0.00
2018-07-31T03:22:37.100Z,0.00
2018-07-31T03:23:37.047Z,0.00
2018-07-31T03:24:36.959Z,0.00
2018-07-31T03:25:36.879Z,0.00
2018-07-31T03:26:36.818Z,0.00
2018-07-31T03:27:36.743Z,0.00
2018-07-31T03:28:36.668Z,0.00
2018-07-31T03:29:36.604Z,0.00
2018-07-31T03:30:36.533Z,0.00
2018-07-31T03:31:36.453Z,0.00
2018-07-31T03:32:36.387Z,0.00
2018-07-31T03:33:36.329Z,0.00
2018-07-31T03:34:36.240Z,0.00
2018-07-31T03:35:36.177Z,0.00
2018-07-31T03:36:36.097Z,0.00
2018-07-31T03:37:36.031Z,0.00
2018-07-31T03:38:35.968Z,5.63
2018-07-31T03:39:35.881Z,5.63
2018-07-31T03:40:35.814Z,5.63
2018-07-31T03:41:35.746Z,5.63
2018-07-31T03:42:35.674Z,5.63
2018-07-31T03:43:35.600Z,5.63
2018-07-31T03:44:35.534Z,5.63
2018-07-31T03:45:35.459Z,5.63
2018-07-31T03:46:35.382Z,5.63
2018-07-31T03:47:35.326Z,11.25
2018-07-31T03:48:35.243Z,11.25
2018-07-31T03:49:35.173Z,11.25
2018-07-31T03:50:35.104Z,11.25
2018-07-31T03:51:35.033Z,11.25
2018-07-31T03:52:34.957Z,11.25
2018-07-31T03:53:34.885Z,11.25
2018-07-31T03:54:34.812Z,16.88
2018-07-31T03:55:34.819Z,16.88
2018-07-31T03:56:34.674Z,16.88
2018-07-31T03:57:34.607Z,16.88
2018-07-31T03:58:34.527Z,16.88
2018-07-31T03:59:34.462Z,22.50
2018-07-31T04:00:34.385Z,22.50
2018-07-31T04:01:34.312Z,22.50
2018-07-31T04:02:34.245Z,22.50
2018-07-31T04:03:34.192Z,22.50
2018-07-31T04:04:34.102Z,28.13
2018-07-31T04:05:34.107Z,28.13
2018-07-31T04:06:33.953Z,28.13
2018-07-31T04:07:33.892Z,28.13
2018-07-31T04:08:33.810Z,28.13
2018-07-31T04:09:33.737Z,33.75
2018-07-31T04:10:33.670Z,33.75
2018-07-31T04:11:33.596Z,33.75
2018-07-31T04:12:33.525Z,33.75
2018-07-31T04:13:33.456Z,39.38
2018-07-31T04:14:33.386Z,39.38
2018-07-31T04:15:33.314Z,39.38
2018-07-31T04:16:33.239Z,39.38
2018-07-31T04:17:33.171Z,45.00
2018-07-31T04:18:33.104Z,45.00
2018-07-31T04:19:33.028Z,45.00
2018-07-31T04:20:32.953Z,45.00
2018-07-31T04:21:32.887Z,50.63
2018-07-31T04:22:32.948Z,50.63
2018-07-31T04:23:32.799Z,50.63
2018-07-31T04:24:32.670Z,50.63
2018-07-31T04:25:32.594Z,50.63
2018-07-31T04:26:32.524Z,56.25
2018-07-31T04:27:32.456Z,56.25
2018-07-31T04:28:32.381Z,56.25
2018-07-31T04:29:32.314Z,56.25
2018-07-31T04:30:32.237Z,61.88
2018-07-31T04:31:32.320Z,61.88
2018-07-31T04:32:32.197Z,61.88
2018-07-31T04:33:32.901Z,61.88
2018-07-31T04:34:32.045Z,67.50
2018-07-31T04:35:31.975Z,67.50
2018-07-31T04:36:32.931Z,67.50
2018-07-31T04:37:31.747Z,67.50
2018-07-31T04:38:31.785Z,73.13
2018-07-31T04:39:31.666Z,73.13
2018-07-31T04:40:31.613Z,73.13
2018-07-31T04:41:31.458Z,73.13
2018-07-31T04:42:31.503Z,78.75
2018-07-31T04:43:31.389Z,78.75
2018-07-31T04:44:31.303Z,78.75
2018-07-31T04:45:31.175Z,78.75
2018-07-31T04:46:31.096Z,78.75
2018-07-31T04:47:31.025Z,84.38
2018-07-31T04:48:30.954Z,84.38
2018-07-31T04:49:30.882Z,84.38
2018-07-31T04:50:30.941Z,84.38
2018-07-31T04:51:30.743Z,90.00
2018-07-31T04:52:30.672Z,90.00
2018-07-31T04:53:30.597Z,90.00
2018-07-31T04:54:30.528Z,90.00
2018-07-31T04:55:30.460Z,90.00
2018-07-31T04:56:30.391Z,90.00
2018-07-31T04:57:30.315Z,90.00
2018-07-31T04:58:30.246Z,90.00
2018-07-31T04:59:30.171Z,90.00
2018-07-31T05:00:30.099Z,90.00
2018-07-31T05:01:30.050Z,95.63
2018-07-31T05:02:29.971Z,95.63
2018-07-31T05:03:29.892Z,95.63
2018-07-31T05:04:29.864Z,95.63
2018-07-31T05:05:29.748Z,95.63
2018-07-31T05:06:29.678Z,95.63
2018-07-31T05:07:29.606Z,101.25
2018-07-31T05:08:29.530Z,101.25
2018-07-31T05:09:29.469Z,101.25
2018-07-31T05:10:29.395Z,101.25
2018-07-31T05:11:29.319Z,101.25
2018-07-31T05:12:29.257Z,101.25
2018-07-31T05:13:29.177Z,106.88
2018-07-31T05:14:29.131Z,106.88
2018-07-31T05:15:29.048Z,106.88
2018-07-31T05:16:28.965Z,106.88
2018-07-31T05:17:29.826Z,106.88
2018-07-31T05:18:28.887Z,106.88
2018-07-31T05:19:28.795Z,112.50
2018-07-31T05:20:28.708Z,112.50
2018-07-31T05:21:28.608Z,112.50
2018-07-31T05:22:28.538Z,112.50
2018-07-31T05:23:28.499Z,112.50
2018-07-31T05:24:28.410Z,112.50
2018-07-31T05:25:28.356Z,112.50
2018-07-31T05:26:28.260Z,118.13
2018-07-31T05:27:28.193Z,123.75
2018-07-31T05:28:28.161Z,118.13
2018-07-31T05:29:28.054Z,118.13
2018-07-31T05:30:27.981Z,118.13
2018-07-31T05:31:27.968Z,118.13
2018-07-31T05:32:27.879Z,118.13
2018-07-31T05:33:27.785Z,123.75
2018-07-31T05:34:27.715Z,123.75
2018-07-31T05:35:27.631Z,123.75
2018-07-31T05:36:27.549Z,123.75
2018-07-31T05:37:27.501Z,123.75
2018-07-31T05:38:27.438Z,123.75
2018-07-31T05:39:27.404Z,123.75
2018-07-31T05:40:27.268Z,123.75
2018-07-31T05:41:27.204Z,129.38
2018-07-31T05:42:27.156Z,129.38
2018-07-31T05:43:27.086Z,129.38
2018-07-31T05:44:27.026Z,129.38
2018-07-31T05:45:26.916Z,129.38
2018-07-31T05:46:26.846Z,129.38
2018-07-31T05:47:26.787Z,129.38
2018-07-31T05:48:26.709Z,129.38
2018-07-31T05:49:26.636Z,140.63
2018-07-31T05:50:26.575Z,140.63
2018-07-31T05:51:26.502Z,140.63
2018-07-31T05:52:26.438Z,135.00
2018-07-31T05:53:26.355Z,140.63
2018-07-31T05:54:26.402Z,146.25
2018-07-31T05:55:26.215Z,140.63
2018-07-31T05:56:26.147Z,140.63
2018-07-31T05:57:26.110Z,140.63
2018-07-31T05:58:26.006Z,140.63
2018-07-31T05:59:25.935Z,140.63
2018-07-31T06:00:25.871Z,140.63
2018-07-31T06:01:25.801Z,146.25
2018-07-31T06:02:25.727Z,146.25
2018-07-31T06:03:25.715Z,146.25
2018-07-31T06:04:25.587Z,146.25
2018-07-31T06:05:25.523Z,146.25
2018-07-31T06:06:25.452Z,146.25
2018-07-31T06:07:25.377Z,146.25
2018-07-31T06:08:25.307Z,146.25
2018-07-31T06:09:25.259Z,146.25
2018-07-31T06:10:25.169Z,146.25
2018-07-31T06:11:25.161Z,151.88
2018-07-31T06:12:25.028Z,151.88
2018-07-31T06:13:24.960Z,151.88
2018-07-31T06:14:24.891Z,151.88
2018-07-31T06:15:24.872Z,151.88
2018-07-31T06:16:24.749Z,151.88
2018-07-31T06:17:24.681Z,151.88
2018-07-31T06:18:24.611Z,151.88
2018-07-31T06:19:24.541Z,151.88
2018-07-31T06:20:24.471Z,151.88
2018-07-31T06:21:24.416Z,151.88
2018-07-31T06:22:24.336Z,157.50
2018-07-31T06:23:24.267Z,157.50
2018-07-31T06:24:24.193Z,157.50
2018-07-31T06:25:24.128Z,157.50
2018-07-31T06:26:24.055Z,157.50
2018-07-31T06:27:23.991Z,157.50
2018-07-31T06:28:23.918Z,157.50
2018-07-31T06:29:23.845Z,157.50
2018-07-31T06:30:23.780Z,157.50
2018-07-31T06:31:23.720Z,157.50
2018-07-31T06:32:23.639Z,157.50
2018-07-31T06:33:23.577Z,163.13
2018-07-31T06:34:23.508Z,163.13
2018-07-31T06:35:23.436Z,163.13
2018-07-31T06:36:23.362Z,163.13
2018-07-31T06:37:23.298Z,163.13
2018-07-31T06:38:23.226Z,163.13
2018-07-31T06:39:23.159Z,163.13
2018-07-31T06:40:23.117Z,163.13
2018-07-31T06:41:23.020Z,163.13
2018-07-31T06:42:22.946Z,163.13
2018-07-31T06:43:22.891Z,163.13
2018-07-31T06:44:22.809Z,163.13
2018-07-31T06:45:22.746Z,163.13
2018-07-31T06:46:22.672Z,163.13
2018-07-31T06:47:22.603Z,168.75
2018-07-31T06:48:22.531Z,168.75
2018-07-31T06:49:22.509Z,168.75
2018-07-31T06:50:22.393Z,168.75
2018-07-31T06:51:22.336Z,168.75
2018-07-31T06:52:22.256Z,168.75
2018-07-31T06:53:22.186Z,168.75
2018-07-31T06:54:22.117Z,168.75
2018-07-31T06:55:22.052Z,168.75
2018-07-31T06:56:21.980Z,168.75
2018-07-31T06:57:21.919Z,168.75
2018-07-31T06:58:21.842Z,168.75
2018-07-31T06:59:21.774Z,168.75
2018-07-31T07:00:21.705Z,168.75
2018-07-31T07:01:21.635Z,168.75
2018-07-31T07:02:21.567Z,174.38
2018-07-31T07:03:21.503Z,174.38
2018-07-31T07:04:21.432Z,174.38
2018-07-31T07:05:21.364Z,174.38
2018-07-31T07:06:21.291Z,174.38
2018-07-31T07:07:21.225Z,174.38
2018-07-31T07:08:21.153Z,174.38
2018-07-31T07:09:21.119Z,174.38
2018-07-31T07:10:21.022Z,174.38
2018-07-31T07:11:20.951Z,174.38
2018-07-31T07:12:20.889Z,174.38
2018-07-31T07:13:20.809Z,174.38
2018-07-31T07:14:20.745Z,180.00
2018-07-31T07:15:20.705Z,180.00
2018-07-31T07:16:20.604Z,180.00
2018-07-31T07:17:20.534Z,180.00
2018-07-31T07:18:20.465Z,180.00
2018-07-31T07:19:20.398Z,180.00
2018-07-31T07:20:20.327Z,180.00
2018-07-31T07:21:20.266Z,185.63
2018-07-31T07:22:20.212Z,185.63
2018-07-31T07:23:20.127Z,180.00
2018-07-31T07:24:20.055Z,180.00
2018-07-31T07:25:19.994Z,180.00
2018-07-31T07:26:19.917Z,180.00
2018-07-31T07:27:19.858Z,180.00
2018-07-31T07:28:19.787Z,180.00
2018-07-31T07:29:19.712Z,180.00
2018-07-31T07:30:19.642Z,180.00
2018-07-31T07:31:19.578Z,180.00
2018-07-31T07:32:19.506Z,180.00
2018-07-31T07:33:19.455Z,180.00
2018-07-31T07:34:19.369Z,180.00
2018-07-31T07:35:19.306Z,180.00
2018-07-31T07:36:19.234Z,185.63
2018-07-31T07:37:19.166Z,185.63
2018-07-31T07:38:19.097Z,185.63
2018-07-31T07:39:19.106Z,185.63
2018-07-31T07:40:19.015Z,185.63
2018-07-31T07:41:18.895Z,185.63
2018-07-31T07:42:18.831Z,185.63
2018-07-31T07:43:18.758Z,185.63
2018-07-31T07:44:18.685Z,185.63
2018-07-31T07:45:18.627Z,185.63
2018-07-31T07:46:18.552Z,185.63
2018-07-31T07:47:18.488Z,185.63
2018-07-31T07:48:18.453Z,185.63
2018-07-31T07:49:18.347Z,185.63
2018-07-31T07:50:18.276Z,191.25
2018-07-31T07:51:18.215Z,191.25
2018-07-31T07:52:18.146Z,191.25
2018-07-31T07:53:18.076Z,191.25
2018-07-31T07:54:18.072Z,191.25
2018-07-31T07:55:17.938Z,191.25
2018-07-31T07:56:17.867Z,191.25
2018-07-31T07:57:17.806Z,191.25
2018-07-31T07:58:17.736Z,196.88
2018-07-31T07:59:17.664Z,196.88
2018-07-31T08:00:17.597Z,196.88
2018-07-31T08:01:17.533Z,196.88
2018-07-31T08:02:17.459Z,196.88
2018-07-31T08:03:17.402Z,196.88
2018-07-31T08:04:17.338Z,196.88
2018-07-31T08:05:17.256Z,196.88
2018-07-31T08:06:17.195Z,196.88
2018-07-31T08:07:17.120Z,202.50
2018-07-31T08:08:17.060Z,202.50
2018-07-31T08:09:17.033Z,202.50
2018-07-31T08:10:16.917Z,202.50
2018-07-31T08:11:16.851Z,202.50
2018-07-31T08:12:16.785Z,202.50
2018-07-31T08:13:16.716Z,202.50
2018-07-31T08:14:16.647Z,202.50
2018-07-31T08:15:16.590Z,202.50
2018-07-31T08:16:16.512Z,202.50
2018-07-31T08:17:16.442Z,208.13
2018-07-31T08:18:16.377Z,208.13
2018-07-31T08:19:16.309Z,208.13
2018-07-31T08:20:16.258Z,208.13
2018-07-31T08:21:16.184Z,208.13
2018-07-31T08:22:16.104Z,208.13
2018-07-31T08:23:16.036Z,208.13
2018-07-31T08:24:15.973Z,208.13
2018-07-31T08:25:15.901Z,208.13
2018-07-31T08:26:15.835Z,213.75
2018-07-31T08:27:15.774Z,213.75
2018-07-31T08:28:15.706Z,213.75
2018-07-31T08:29:15.631Z,213.75
2018-07-31T08:30:15.563Z,213.75
2018-07-31T08:31:15.499Z,213.75
2018-07-31T08:32:15.432Z,213.75
2018-07-31T08:33:15.371Z,213.75
2018-07-31T08:34:15.298Z,219.38
2018-07-31T08:35:15.229Z,219.38
2018-07-31T08:36:15.159Z,219.38
2018-07-31T08:37:15.095Z,225.00
2018-07-31T08:38:15.031Z,219.38
2018-07-31T08:39:14.964Z,225.00
2018-07-31T08:40:14.896Z,219.38
2018-07-31T08:41:14.861Z,225.00
2018-07-31T08:42:14.755Z,225.00
2018-07-31T08:43:14.689Z,225.00
2018-07-31T08:44:14.636Z,225.00
2018-07-31T08:45:14.561Z,225.00
2018-07-31T08:46:14.491Z,225.00
2018-07-31T08:47:14.425Z,225.00
2018-07-31T08:48:14.358Z,230.63
2018-07-31T08:49:14.287Z,230.63
2018-07-31T08:50:14.217Z,230.63
2018-07-31T08:51:14.197Z,230.63
2018-07-31T08:52:14.088Z,230.63
2018-07-31T08:53:14.017Z,230.63
2018-07-31T08:54:13.950Z,230.63
2018-07-31T08:55:13.890Z,236.25
2018-07-31T08:56:13.815Z,236.25
2018-07-31T08:57:13.754Z,236.25
2018-07-31T08:58:13.682Z,236.25
2018-07-31T08:59:13.616Z,236.25
2018-07-31T09:00:13.548Z,236.25
2018-07-31T09:01:13.479Z,236.25
2018-07-31T09:02:13.417Z,241.88
2018-07-31T09:03:13.348Z,241.88
2018-07-31T09:04:13.279Z,241.88
2018-07-31T09:05:13.234Z,241.88
2018-07-31T09:06:13.146Z,241.88
2018-07-31T09:07:13.087Z,241.88
2018-07-31T09:08:13.053Z,241.88
2018-07-31T09:09:12.945Z,247.50
2018-07-31T09:10:12.878Z,247.50
2018-07-31T09:11:12.810Z,253.13
2018-07-31T09:12:12.744Z,253.13
2018-07-31T09:13:12.678Z,253.13
2018-07-31T09:14:12.621Z,247.50
2018-07-31T09:15:12.545Z,253.13
2018-07-31T09:16:12.476Z,253.13
2018-07-31T09:17:12.410Z,258.75
2018-07-31T09:18:12.344Z,253.13
2018-07-31T09:19:12.281Z,258.75
2018-07-31T09:20:12.210Z,258.75
2018-07-31T09:21:12.142Z,258.75
2018-07-31T09:22:12.119Z,253.13
2018-07-31T09:23:12.010Z,258.75
2018-07-31T09:24:11.943Z,258.75
2018-07-31T09:25:11.884Z,258.75
2018-07-31T09:26:11.848Z,258.75
2018-07-31T09:27:11.791Z,258.75
2018-07-31T09:28:11.714Z,258.75
2018-07-31T09:29:11.608Z,258.75
2018-07-31T09:30:11.543Z,258.75
2018-07-31T09:31:11.480Z,258.75
2018-07-31T09:32:11.410Z,264.38
2018-07-31T09:33:11.342Z,264.38
2018-07-31T09:34:11.282Z,264.38
2018-07-31T09:35:11.211Z,264.38
2018-07-31T09:36:11.198Z,264.38
2018-07-31T09:37:11.075Z,264.38
2018-07-31T09:38:11.053Z,264.38
2018-07-31T09:39:10.986Z,264.38
2018-07-31T09:40:10.929Z,270.00
2018-07-31T09:41:10.810Z,270.00
2018-07-31T09:42:10.747Z,270.00
2018-07-31T09:43:10.720Z,270.00
2018-07-31T09:44:10.682Z,270.00
2018-07-31T09:45:10.587Z,270.00
2018-07-31T09:46:10.526Z,275.63
2018-07-31T09:47:10.471Z,275.63
2018-07-31T09:48:10.404Z,275.63
2018-07-31T09:49:10.280Z,275.63
2018-07-31T09:50:10.273Z,275.63
2018-07-31T09:51:10.146Z,275.63
2018-07-31T09:52:10.123Z,281.25
2018-07-31T09:53:10.070Z,281.25
2018-07-31T09:54:09.947Z,281.25
2018-07-31T09:55:09.946Z,281.25
2018-07-31T09:56:09.884Z,281.25
2018-07-31T09:57:09.769Z,281.25
2018-07-31T09:58:09.742Z,281.25
2018-07-31T09:59:09.670Z,281.25
2018-07-31T10:00:09.611Z,281.25
2018-07-31T10:01:10.502Z,281.25
2018-07-31T10:02:09.481Z,286.88
2018-07-31T10:03:09.402Z,286.88
2018-07-31T10:04:09.336Z,286.88
2018-07-31T10:05:09.336Z,292.50
2018-07-31T10:06:09.153Z,298.13
2018-07-31T10:07:09.106Z,292.50
2018-07-31T10:08:09.082Z,292.50
2018-07-31T10:09:09.015Z,303.75
2018-07-31T10:10:08.931Z,303.75
2018-07-31T10:11:08.859Z,303.75
2018-07-31T10:12:08.843Z,303.75
2018-07-31T10:13:08.743Z,303.75
2018-07-31T10:14:08.628Z,309.38
2018-07-31T10:15:08.586Z,309.38
2018-07-31T10:16:08.527Z,309.38
2018-07-31T10:17:08.457Z,315.00
2018-07-31T10:18:08.422Z,315.00
2018-07-31T10:19:08.308Z,320.63
2018-07-31T10:20:08.248Z,320.63
2018-07-31T10:21:08.221Z,326.25
2018-07-31T10:22:08.153Z,326.25
2018-07-31T10:23:08.047Z,326.25
2018-07-31T10:24:08.044Z,331.88
2018-07-31T10:25:07.936Z,331.88
2018-07-31T10:26:07.858Z,331.88
2018-07-31T10:27:07.779Z,343.13
2018-07-31T10:28:07.716Z,343.13
2018-07-31T10:29:07.696Z,343.13
2018-07-31T10:30:07.576Z,343.13
2018-07-31T10:31:07.508Z,348.75
2018-07-31T10:32:07.441Z,348.75
2018-07-31T10:33:07.377Z,354.38
2018-07-31T10:34:07.318Z,354.38
2018-07-31T10:35:07.258Z,354.38
2018-07-31T10:36:07.230Z,360.00
2018-07-31T10:37:07.133Z,365.63
2018-07-31T10:38:07.075Z,371.25
2018-07-31T10:39:07.009Z,376.88
2018-07-31T10:40:06.951Z,376.88
2018-07-31T10:41:06.904Z,382.50
2018-07-31T10:42:06.839Z,382.50
2018-07-31T10:43:06.812Z,388.13
2018-07-31T10:44:06.734Z,393.75
2018-07-31T10:45:06.601Z,393.75
2018-07-31T10:46:06.547Z,399.38
2018-07-31T10:47:06.474Z,399.38
2018-07-31T10:48:06.420Z,405.00
2018-07-31T10:49:06.470Z,405.00
2018-07-31T10:50:06.317Z,405.00
2018-07-31T10:51:06.233Z,405.00
2018-07-31T10:52:06.139Z,405.00
2018-07-31T10:53:06.068Z,410.63
2018-07-31T10:54:06.002Z,410.63
2018-07-31T10:55:05.994Z,416.25
2018-07-31T10:56:05.874Z,416.25
2018-07-31T10:57:05.806Z,416.25
2018-07-31T10:58:05.780Z,416.25
2018-07-31T10:59:05.680Z,421.88
2018-07-31T11:00:05.696Z,421.88
2018-07-31T11:01:05.548Z,421.88
2018-07-31T11:02:05.485Z,427.50
2018-07-31T11:03:05.512Z,427.50
2018-07-31T11:04:05.377Z,427.50
2018-07-31T11:05:05.289Z,427.50
2018-07-31T11:06:05.221Z,433.13
2018-07-31T11:07:05.160Z,433.13
2018-07-31T11:08:05.095Z,433.13
2018-07-31T11:09:05.030Z,438.75
2018-07-31T11:10:04.970Z,438.75
2018-07-31T11:11:04.898Z,438.75
2018-07-31T11:12:04.839Z,444.38
2018-07-31T11:13:04.774Z,444.38
2018-07-31T11:14:04.706Z,444.38
2018-07-31T11:15:04.645Z,450.00
2018-07-31T11:16:04.593Z,450.00
2018-07-31T11:17:04.513Z,450.00
2018-07-31T11:18:04.448Z,450.00
2018-07-31T11:19:04.959Z,455.63
2018-07-31T11:20:04.362Z,455.63
2018-07-31T11:21:04.290Z,455.63
2018-07-31T11:22:04.190Z,461.25
2018-07-31T11:23:04.153Z,461.25
2018-07-31T11:24:04.059Z,461.25
2018-07-31T11:25:03.994Z,461.25
2018-07-31T11:26:03.936Z,461.25
2018-07-31T11:27:03.912Z,461.25
2018-07-31T11:28:03.859Z,461.25
2018-07-31T11:29:03.760Z,461.25
2018-07-31T11:30:03.674Z,461.25
2018-07-31T11:31:03.609Z,466.88
2018-07-31T11:32:03.542Z,466.88
2018-07-31T11:33:03.547Z,472.50
2018-07-31T11:34:03.418Z,472.50
2018-07-31T11:35:03.354Z,472.50
2018-07-31T11:36:03.289Z,478.13
2018-07-31T11:37:03.240Z,478.13
2018-07-31T11:38:03.160Z,478.13
2018-07-31T11:39:03.106Z,478.13
2018-07-31T11:40:03.037Z,483.75
2018-07-31T11:41:02.968Z,483.75
2018-07-31T11:42:02.901Z,483.75
2018-07-31T11:43:02.839Z,483.75
2018-07-31T11:44:02.836Z,483.75
2018-07-31T11:45:02.722Z,489.38
2018-07-31T11:46:02.645Z,489.38
2018-07-31T11:47:02.584Z,495.00
2018-07-31T11:48:02.516Z,495.00
2018-07-31T11:49:02.455Z,500.63
2018-07-31T11:50:02.458Z,500.63
2018-07-31T11:51:02.331Z,506.25
2018-07-31T11:52:02.266Z,506.25
2018-07-31T11:53:02.201Z,511.88
2018-07-31T11:54:02.143Z,517.50
2018-07-31T11:55:02.074Z,517.50
2018-07-31T11:56:02.005Z,517.50
2018-07-31T11:57:01.946Z,517.50
2018-07-31T11:58:01.887Z,528.75
2018-07-31T11:59:01.821Z,523.13
2018-07-31T12:00:01.752Z,528.75
2018-07-31T12:01:01.695Z,523.13
2018-07-31T12:02:01.627Z,523.13
2018-07-31T12:03:01.566Z,523.13
2018-07-31T12:04:01.498Z,523.13
2018-07-31T12:05:01.432Z,528.75
2018-07-31T12:06:01.370Z,528.75
2018-07-31T12:07:01.309Z,534.38
2018-07-31T12:08:01.247Z,534.38
2018-07-31T12:09:01.187Z,540.00
2018-07-31T12:10:01.163Z,540.00
2018-07-31T12:11:01.056Z,545.63
2018-07-31T12:12:00.991Z,551.25
2018-07-31T12:13:00.929Z,551.25
2018-07-31T12:14:00.898Z,556.88
2018-07-31T12:15:00.807Z,556.88
2018-07-31T12:16:00.764Z,556.88
2018-07-31T12:17:00.676Z,562.50
2018-07-31T12:18:00.611Z,562.50
2018-07-31T12:19:00.581Z,562.50
2018-07-31T12:20:00.492Z,562.50
2018-07-31T12:21:00.430Z,562.50
2018-07-31T12:22:00.361Z,562.50
2018-07-31T12:23:00.302Z,568.13
2018-07-31T12:24:00.232Z,568.13
2018-07-31T12:25:00.175Z,573.75
2018-07-31T12:26:00.110Z,579.38
2018-07-31T12:27:00.061Z,579.38
2018-07-31T12:27:59.990Z,585.00
2018-07-31T12:28:59.925Z,590.63
2018-07-31T12:29:59.856Z,590.63
2018-07-31T12:30:59.797Z,596.25
2018-07-31T12:31:59.735Z,601.88
2018-07-31T12:32:59.760Z,607.50
2018-07-31T12:33:59.610Z,607.50
2018-07-31T12:34:59.551Z,607.50
2018-07-31T12:35:59.487Z,607.50
2018-07-31T12:36:59.425Z,613.13
2018-07-31T12:37:59.361Z,630.00
2018-07-31T12:38:59.317Z,652.50
2018-07-31T12:39:59.244Z,720.00
2018-07-31T12:40:59.177Z,1681.88
2018-07-31T12:41:59.117Z,3093.75
2018-07-31T12:42:59.060Z,3965.63
2018-07-31T12:43:59.015Z,4111.88
2018-07-31T12:44:58.939Z,4775.63